Time;durP1;ratioP1;P1;durP2;ratioP2;P2;SDS_P1;SDS_P2;PMS_P1;PMS_P2;Temp;Humidity;BMP_temperature;BMP_pressure;BME280_temperature;BME280_humidity;BME280_pressure;Samples;Min_cycle;Max_cycle;Signal;HPM_P1;HPM_P2
2020/06/04 00:45:01;;;;;;;3.1;2;;;;;;;17.05;60.87207;942.5156;;;;
2020/06/04 00:48:27;;;;;;;3.7;1.7;;;;;;;17.05;61.43262;942.4227;;;;
2020/06/04 00:56:09;;;;;;;5.2;1.8;;;;;;;17.27;60.76172;942.3066;;;;
2020/06/04 01:40:35;;;;;;;2.9;1.7;;;;;;;16.69;64.61621;942.0074;;;;
2020/06/04 01:57:15;;;;;;;2.1;1.7;;;;;;;16.78;64.73535;941.9208;;;;
2020/06/04 02:11:37;;;;;;;2.1;1.7;;;;;;;16.74;64.44824;941.767;;;;
2020/06/04 02:18:48;;;;;;;3;1.8;;;;;;;16.79;64.05859;941.7422;;;;
2020/06/04 02:21:47;;;;;;;4.5;1.9;;;;;;;16.74;63.98145;941.6838;;;;
2020/06/04 02:38:33;;;;;;;2.8;1.7;;;;;;;16.81;63.33789;941.7015;;;;
2020/06/04 02:58:04;;;;;;;2;1.7;;;;;;;16.79;63.79004;941.5963;;;;
2020/06/04 03:13:42;;;;;;;2.9;1.8;;;;;;;16.74;64.81055;941.5663;;;;
2020/06/04 03:25:36;;;;;;;2;1.4;;;;;;;16.6;65.52539;941.4675;;;;
2020/06/04 03:27:53;;;;;;;2.4;1.8;;;;;;;16.6;65.57227;941.4363;;;;
2020/06/04 03:38:51;;;;;;;2.9;1.5;;;;;;;16.6;65.75879;941.5037;;;;
2020/06/04 04:17:21;;;;;;;2.7;2;;;;;;;16.58;66.96875;941.252;;;;
2020/06/04 04:22:05;;;;;;;2.6;1.7;;;;;;;16.66;66.84082;941.1906;;;;
2020/06/04 04:26:44;;;;;;;2.3;1.6;;;;;;;16.73;66.44336;941.166;;;;
2020/06/04 04:31:48;;;;;;;2.7;1.6;;;;;;;16.71;66.47461;941.158;;;;
2020/06/04 04:34:03;;;;;;;4.3;1.7;;;;;;;16.79;66.22949;941.19;;;;
2020/06/04 04:41:24;;;;;;;2.2;1.5;;;;;;;16.81;66.26855;941.1092;;;;
2020/06/04 04:44:00;;;;;;;1.5;1.4;;;;;;;16.87;66.18359;941.1343;;;;
2020/06/04 04:48:33;;;;;;;2.4;1.5;;;;;;;16.89;66.38574;941.0622;;;;
2020/06/04 04:51:05;;;;;;;2.7;1.5;;;;;;;16.81;66.54883;941.0904;;;;
2020/06/04 04:53:20;;;;;;;2.5;1.8;;;;;;;16.86;66.66211;941.0851;;;;
2020/06/04 04:55:55;;;;;;;2.8;1.8;;;;;;;16.7;67.09277;941.0783;;;;
2020/06/04 04:58:51;;;;;;;2.1;1.6;;;;;;;16.6;67.69531;941.0539;;;;
2020/06/04 05:04:24;;;;;;;1.7;1.5;;;;;;;16.75;67.42578;941.0117;;;;
2020/06/04 05:15:11;;;;;;;2.8;1.4;;;;;;;16.67;67.30957;940.9283;;;;
2020/06/04 05:17:33;;;;;;;2.1;1.5;;;;;;;16.78;66.97559;941;;;;
2020/06/04 05:20:00;;;;;;;2.7;1.3;;;;;;;16.75;67.22949;940.9943;;;;
2020/06/04 05:22:23;;;;;;;2.7;1.4;;;;;;;16.8;67.30566;940.9141;;;;
2020/06/04 05:24:48;;;;;;;2.1;1.4;;;;;;;16.84;67.05566;940.9611;;;;
2020/06/04 05:27:20;;;;;;;1.9;1.7;;;;;;;16.78;67.62891;940.9803;;;;
2020/06/04 05:29:42;;;;;;;1.9;1.4;;;;;;;16.7;67.95703;940.9763;;;;
2020/06/04 05:31:58;;;;;;;2.6;1.4;;;;;;;16.74;68.00879;940.9911;;;;
2020/06/04 05:34:23;;;;;;;1.6;1.4;;;;;;;16.83;67.96484;940.9802;;;;
2020/06/04 05:36:50;;;;;;;2.5;1.5;;;;;;;16.89;67.86914;940.975;;;;
2020/06/04 05:39:15;;;;;;;2.3;1.5;;;;;;;16.82;68.14844;940.9455;;;;
2020/06/04 05:41:41;;;;;;;1.8;1.3;;;;;;;16.98;67.90625;940.9741;;;;
2020/06/04 05:44:06;;;;;;;2.7;1.4;;;;;;;16.97;67.89355;940.962;;;;
2020/06/04 05:46:31;;;;;;;2.3;1.4;;;;;;;17;67.96582;940.9743;;;;
2020/06/04 05:48:56;;;;;;;2.1;1.5;;;;;;;17.09;67.71289;940.9595;;;;
2020/06/04 05:51:21;;;;;;;2.6;1.7;;;;;;;17.06;68.09277;941.0184;;;;
2020/06/04 05:53:46;;;;;;;2.6;1.7;;;;;;;16.95;68.58984;941.0469;;;;
2020/06/04 05:56:11;;;;;;;3.1;1.7;;;;;;;16.9;68.82813;941.0783;;;;
2020/06/04 05:58:36;;;;;;;2.7;1.6;;;;;;;16.7;69.63574;941.1584;;;;
2020/06/04 06:01:08;;;;;;;2.9;1.8;;;;;;;16.77;69.56543;941.1749;;;;
2020/06/04 06:03:39;;;;;;;3.3;1.7;;;;;;;16.76;69.6582;941.1505;;;;
2020/06/04 06:06:04;;;;;;;2.5;1.6;;;;;;;16.74;70.31934;941.2046;;;;
2020/06/04 06:08:30;;;;;;;3.3;1.8;;;;;;;16.54;71.92188;941.2154;;;;
2020/06/04 06:10:56;;;;;;;2;1.5;;;;;;;16.51;72.47656;941.2173;;;;
2020/06/04 06:13:22;;;;;;;2.9;1.9;;;;;;;16.61;73.09961;941.223;;;;
2020/06/04 06:15:47;;;;;;;2.6;1.6;;;;;;;16.52;73.29492;941.2195;;;;
2020/06/04 06:18:17;;;;;;;2.7;1.6;;;;;;;16.49;74.43359;941.2929;;;;
2020/06/04 06:20:40;;;;;;;3.1;1.6;;;;;;;16.38;75.20801;941.2322;;;;
2020/06/04 06:23:03;;;;;;;3.8;1.7;;;;;;;16.23;76.2666;941.2437;;;;
2020/06/04 06:25:28;;;;;;;3.3;1.3;;;;;;;16.22;76.32324;941.1916;;;;
2020/06/04 06:28:00;;;;;;;2.4;1.6;;;;;;;16.32;77.26172;941.2209;;;;
2020/06/04 06:30:19;;;;;;;4.8;1.3;;;;;;;16.43;77.41113;941.1688;;;;
2020/06/04 06:32:46;;;;;;;3.5;1.8;;;;;;;16.48;77.34668;941.1657;;;;
2020/06/04 06:35:13;;;;;;;3.3;1.6;;;;;;;16.59;77.57617;941.1696;;;;
2020/06/04 06:37:38;;;;;;;2.1;1.5;;;;;;;16.47;76.33008;941.1613;;;;
2020/06/04 06:40:03;;;;;;;1.6;1.2;;;;;;;16.42;76.01953;941.1866;;;;
2020/06/04 06:42:28;;;;;;;2.7;1.8;;;;;;;16.53;77.25195;941.1631;;;;
2020/06/04 06:44:53;;;;;;;1.9;1.5;;;;;;;16.34;75.99512;941.186;;;;
2020/06/04 06:47:18;;;;;;;1.7;1.3;;;;;;;16.41;76.09961;941.1802;;;;
2020/06/04 06:49:43;;;;;;;2.7;1.4;;;;;;;16.58;76.19922;941.1321;;;;
2020/06/04 06:52:08;;;;;;;2.6;1.3;;;;;;;16.72;74.99805;941.1181;;;;
2020/06/04 06:54:33;;;;;;;2;1.4;;;;;;;16.79;75.34766;941.1365;;;;
2020/06/04 06:56:58;;;;;;;2.5;1.5;;;;;;;16.65;74.68262;941.1411;;;;
2020/06/04 06:59:23;;;;;;;1.9;1.4;;;;;;;16.63;75.0293;941.1813;;;;
2020/06/04 07:01:49;;;;;;;2.5;1.4;;;;;;;16.75;74.61914;941.2;;;;
2020/06/04 07:06:27;;;;;;;1.4;1.2;;;;;;;16.88;74.27832;941.1463;;;;
2020/06/04 07:08:52;;;;;;;1.7;1.2;;;;;;;16.83;74.29297;941.1688;;;;
2020/06/04 07:11:22;;;;;;;2.1;1.3;;;;;;;17;73.3623;941.134;;;;
2020/06/04 07:13:42;;;;;;;2.6;1.3;;;;;;;17.14;72.66211;941.1331;;;;
2020/06/04 07:16:13;;;;;;;2.3;1.4;;;;;;;17.24;72.03516;941.1163;;;;
2020/06/04 07:18:33;;;;;;;1.9;1.1;;;;;;;16.94;72.33691;941.1872;;;;
2020/06/04 07:21:03;;;;;;;2.8;1.4;;;;;;;16.86;72.61719;941.1131;;;;
2020/06/04 07:23:23;;;;;;;3.3;2.1;;;;;;;17.17;72.3877;941.1886;;;;
2020/06/04 07:25:48;;;;;;;2.4;1.7;;;;;;;17.05;72.19336;941.1658;;;;
2020/06/04 07:28:14;;;;;;;2.9;1.4;;;;;;;17.4;71.78125;941.135;;;;
2020/06/04 07:30:40;;;;;;;1.9;1.1;;;;;;;17.28;70.81543;941.1568;;;;
2020/06/04 07:33:03;;;;;;;1.8;1.4;;;;;;;17.37;71.54297;941.127;;;;
2020/06/04 07:35:34;;;;;;;2.2;1.6;;;;;;;17.45;70.63281;941.125;;;;
2020/06/04 07:40:26;;;;;;;2.1;1.1;;;;;;;17.2;70.76758;941.0492;;;;
2020/06/04 07:42:51;;;;;;;3.8;3.2;;;;;;;17.48;70.20605;941.0488;;;;
2020/06/04 07:45:17;;;;;;;4;2.5;;;;;;;17.56;69.79785;940.9914;;;;
2020/06/04 07:47:42;;;;;;;1.4;1.1;;;;;;;17.55;69.56055;940.986;;;;
2020/06/04 07:50:13;;;;;;;1.2;1;;;;;;;17.46;69.19629;940.9819;;;;
2020/06/04 07:52:39;;;;;;;1.2;1.1;;;;;;;17.61;68.83398;940.9604;;;;
2020/06/04 07:55:10;;;;;;;1.2;1;;;;;;;17.03;70.58691;940.9537;;;;
2020/06/04 07:57:29;;;;;;;1.4;1.1;;;;;;;17.2;70.56934;941.0195;;;;
2020/06/04 07:59:54;;;;;;;1.9;1.2;;;;;;;17.45;70.08496;940.9673;;;;
2020/06/04 08:02:20;;;;;;;1.7;1.1;;;;;;;17.42;70.5;940.9717;;;;
2020/06/04 08:04:49;;;;;;;2.1;1.3;;;;;;;17.58;70.1748;940.908;;;;
2020/06/04 08:07:10;;;;;;;1.5;1.1;;;;;;;17.5;69.63379;940.9285;;;;
2020/06/04 08:09:35;;;;;;;1.2;1.1;;;;;;;17.5;69.59863;940.9953;;;;
2020/06/04 08:14:36;;;;;;;1.7;1.4;;;;;;;17.52;70.10645;940.926;;;;
2020/06/04 08:22:06;;;;;;;2.1;1.1;;;;;;;17.48;69.09473;940.9292;;;;
2020/06/04 08:30:24;;;;;;;1.5;1;;;;;;;17.61;68.35449;940.915;;;;
2020/06/04 08:32:05;;;;;;;1.8;1;;;;;;;17.51;68.63281;940.8342;;;;
2020/06/04 08:34:03;;;;;;;1.8;1.1;;;;;;;17.39;68.14453;940.7963;;;;
2020/06/04 08:38:56;;;;;;;1.2;0.9;;;;;;;17.82;66.74805;940.7047;;;;
2020/06/04 08:41:13;;;;;;;1.6;0.7;;;;;;;17.96;66.31348;940.7455;;;;
2020/06/04 08:43:35;;;;;;;1.7;0.8;;;;;;;17.72;66.40723;940.7601;;;;
2020/06/04 08:45:59;;;;;;;0.7;0.7;;;;;;;17.89;66.19824;940.7134;;;;
2020/06/04 08:48:27;;;;;;;1.5;0.7;;;;;;;17.9;65.91797;940.7075;;;;
2020/06/04 08:53:18;;;;;;;0.7;0.7;;;;;;;17.91;65.80176;940.7519;;;;
2020/06/04 08:55:50;;;;;;;1.6;0.7;;;;;;;17.92;65.83789;940.7625;;;;
2020/06/04 09:03:03;;;;;;;1.1;0.8;;;;;;;18.23;65.06543;940.7441;;;;
2020/06/04 09:07:48;;;;;;;1.8;0.8;;;;;;;18.28;64.7207;940.6351;;;;
2020/06/04 09:10:17;;;;;;;1.2;1;;;;;;;18.34;65.35254;940.5903;;;;
2020/06/04 09:12:43;;;;;;;1.4;0.8;;;;;;;18.47;63.77637;940.6071;;;;
2020/06/04 09:15:07;;;;;;;1.1;0.8;;;;;;;18.52;63.70215;940.6312;;;;
2020/06/04 09:17:29;;;;;;;1;0.7;;;;;;;18.32;63.69629;940.6063;;;;
2020/06/04 09:19:54;;;;;;;1.6;1.2;;;;;;;18.34;63.85156;940.5946;;;;
2020/06/04 09:22:19;;;;;;;0.9;0.5;;;;;;;18.16;62.44434;940.6069;;;;
2020/06/04 09:24:44;;;;;;;1.7;0.8;;;;;;;18.11;63.5957;940.5991;;;;
2020/06/04 09:27:09;;;;;;;0.9;0.7;;;;;;;18.28;63.52539;940.6192;;;;
2020/06/04 09:29:35;;;;;;;0.6;0.6;;;;;;;18.21;63.23438;940.6544;;;;
2020/06/04 09:32:00;;;;;;;0.8;0.6;;;;;;;18.22;63.54102;940.6225;;;;
2020/06/04 09:34:26;;;;;;;1.6;0.9;;;;;;;18.22;63.55273;940.6697;;;;
2020/06/04 09:39:25;;;;;;;1.5;0.7;;;;;;;18.32;63.42676;940.668;;;;
2020/06/04 09:41:53;;;;;;;1.6;0.9;;;;;;;18.45;63.46973;940.6697;;;;
2020/06/04 09:44:07;;;;;;;0.7;0.6;;;;;;;18.52;63.29199;940.6933;;;;
2020/06/04 09:46:41;;;;;;;2;0.9;;;;;;;18.61;62.85938;940.6722;;;;
2020/06/04 09:49:20;;;;;;;1.3;0.6;;;;;;;18.84;61.94141;940.6956;;;;
2020/06/04 09:51:49;;;;;;;0.7;0.7;;;;;;;18.78;62.15527;940.5653;;;;
2020/06/04 09:53:51;;;;;;;0.7;0.6;;;;;;;19.05;61.06836;940.6223;;;;
2020/06/04 09:56:13;;;;;;;1.3;0.7;;;;;;;18.8;61.75977;940.5751;;;;
2020/06/04 09:58:51;;;;;;;1.2;0.9;;;;;;;19.12;61.01855;940.5033;;;;
2020/06/04 10:06:10;;;;;;;1.1;1;;;;;;;19.09;61.0625;940.4771;;;;
2020/06/04 10:08:31;;;;;;;2.3;0.9;;;;;;;18.95;61.28906;940.5006;;;;
2020/06/04 10:10:55;;;;;;;1;0.7;;;;;;;18.77;61.93164;940.5243;;;;
2020/06/04 10:13:19;;;;;;;2.1;0.9;;;;;;;18.74;62.38477;940.4936;;;;
2020/06/04 10:15:47;;;;;;;1.5;0.9;;;;;;;18.85;62.51758;940.494;;;;
2020/06/04 10:18:12;;;;;;;2.6;1.1;;;;;;;18.95;62.80273;940.4686;;;;
2020/06/04 10:23:29;;;;;;;1.1;0.8;;;;;;;18.74;64.36719;940.4553;;;;
2020/06/04 10:25:52;;;;;;;1.1;1;;;;;;;18.67;63.80566;940.3998;;;;
2020/06/04 10:28:24;;;;;;;1.5;0.9;;;;;;;18.73;63.97852;940.4625;;;;
2020/06/04 10:30:49;;;;;;;3.5;1;;;;;;;18.62;63.66992;940.3251;;;;
2020/06/04 10:33:14;;;;;;;1.2;1.1;;;;;;;18.6;63.99414;940.2823;;;;
2020/06/04 10:35:41;;;;;;;1.2;0.9;;;;;;;18.38;64.2207;940.3031;;;;
2020/06/04 10:38:06;;;;;;;1.4;0.8;;;;;;;18.52;64.25391;940.3254;;;;
2020/06/04 10:40:43;;;;;;;1.3;1;;;;;;;18.56;64.25879;940.2924;;;;
2020/06/04 10:43:08;;;;;;;1.3;0.8;;;;;;;18.71;63.7998;940.2739;;;;
2020/06/04 10:45:35;;;;;;;2;1;;;;;;;18.62;63.79883;940.3334;;;;
2020/06/04 10:52:54;;;;;;;2.2;1.1;;;;;;;18.62;64.3252;940.3278;;;;
2020/06/04 10:55:26;;;;;;;1.9;0.9;;;;;;;18.44;64.61523;940.2919;;;;
2020/06/04 11:01:29;;;;;;;2.5;1.1;;;;;;;18.52;66.15234;940.2825;;;;
2020/06/04 11:05:17;;;;;;;1.2;0.9;;;;;;;18.61;66.63477;940.2497;;;;
2020/06/04 11:10:47;;;;;;;1.4;1.2;;;;;;;18.94;67.2832;940.1742;;;;
2020/06/04 11:12:36;;;;;;;1.7;1.1;;;;;;;18.93;66.57617;940.1811;;;;
2020/06/04 11:17:19;;;;;;;1.9;1.2;;;;;;;18.76;66.63379;940.1509;;;;
2020/06/04 11:19:52;;;;;;;1.6;1.2;;;;;;;18.97;65.92578;940.0648;;;;
2020/06/04 11:24:35;;;;;;;1.4;0.8;;;;;;;19.36;64.10645;940.0146;;;;
2020/06/04 11:26:57;;;;;;;1.2;1;;;;;;;19.19;63.76367;939.9481;;;;
2020/06/04 11:29:28;;;;;;;2;1.1;;;;;;;19.29;63.26074;939.926;;;;
2020/06/04 11:31:53;;;;;;;1.4;1.1;;;;;;;19.25;63.50195;939.882;;;;
2020/06/04 11:34:12;;;;;;;1.6;1;;;;;;;19.21;62.14746;939.9316;;;;
2020/06/04 11:39:02;;;;;;;1.3;1.1;;;;;;;18.95;63.24902;939.8708;;;;
2020/06/04 11:44:00;;;;;;;1.1;1;;;;;;;19.04;63.74121;939.7537;;;;
2020/06/04 11:46:25;;;;;;;2.7;1.3;;;;;;;19.28;62.89648;939.7481;;;;
2020/06/04 11:51:07;;;;;;;1.8;1.1;;;;;;;19.16;63.08984;939.7053;;;;
2020/06/04 11:53:31;;;;;;;1.9;1;;;;;;;18.75;64.25098;939.6725;;;;
2020/06/04 11:55:59;;;;;;;1.3;1.2;;;;;;;18.69;63.9502;939.6511;;;;
2020/06/04 11:58:34;;;;;;;1.2;1;;;;;;;19.12;63.36719;939.5634;;;;
2020/06/04 12:03:17;;;;;;;2;1.5;;;;;;;19.42;62.64551;939.5659;;;;
2020/06/04 12:05:44;;;;;;;1.4;1.2;;;;;;;19.56;62.60742;939.6094;;;;
2020/06/04 12:12:56;;;;;;;2.8;1.2;;;;;;;19.7;61.36914;939.498;;;;
2020/06/04 12:15:18;;;;;;;1.2;1;;;;;;;19.96;60.64063;939.4901;;;;
2020/06/04 12:17:45;;;;;;;1.3;1.1;;;;;;;19.39;61.83203;939.5148;;;;
2020/06/04 12:20:09;;;;;;;1.2;1;;;;;;;19.48;62.26563;939.4664;;;;
2020/06/04 12:22:35;;;;;;;2.7;1.2;;;;;;;20.21;60.56836;939.4777;;;;
2020/06/04 12:25:01;;;;;;;1.5;1.1;;;;;;;20.31;60.12402;939.3406;;;;
2020/06/04 12:27:35;;;;;;;2;1.2;;;;;;;19.98;60.05664;939.3477;;;;
2020/06/04 12:32:35;;;;;;;1.2;1;;;;;;;20.22;59.53613;939.2615;;;;
2020/06/04 12:42:04;;;;;;;1.3;1.2;;;;;;;20.54;56.92969;939.1205;;;;
2020/06/04 12:46:58;;;;;;;2;1.2;;;;;;;20.67;57.80664;939.1699;;;;
2020/06/04 12:49:35;;;;;;;2.7;1.2;;;;;;;20.71;57.57422;939.1937;;;;
2020/06/04 12:52:04;;;;;;;1;0.9;;;;;;;20.41;57.21777;939.2117;;;;
2020/06/04 12:56:50;;;;;;;1.4;1;;;;;;;20.41;56.98438;939.1987;;;;
2020/06/04 13:04:00;;;;;;;1.8;0.9;;;;;;;20.96;54.9209;939.1135;;;;
2020/06/04 13:13:05;;;;;;;1.9;1.2;;;;;;;20.21;56.39258;939.0544;;;;
2020/06/04 13:22:49;;;;;;;1.1;1;;;;;;;20.27;56.88379;939.0959;;;;
2020/06/04 13:27:51;;;;;;;2.8;1.2;;;;;;;20.4;56.11133;939.0647;;;;
2020/06/04 13:30:57;;;;;;;3;1;;;;;;;20.21;56.5459;939.0829;;;;
2020/06/04 13:33:14;;;;;;;6.3;1.5;;;;;;;20.27;56.89453;939.1261;;;;
2020/06/04 13:35:28;;;;;;;1.8;1;;;;;;;20.04;56.24219;939.1124;;;;
2020/06/04 13:37:32;;;;;;;3.3;0.8;;;;;;;20.23;55.30078;939.0664;;;;
2020/06/04 13:40:01;;;;;;;1.5;0.8;;;;;;;20.19;53.7666;939.0558;;;;
2020/06/04 13:45:09;;;;;;;1.3;0.8;;;;;;;19.94;53.8418;939.1038;;;;
2020/06/04 13:47:28;;;;;;;0.7;0.7;;;;;;;19.82;54.27344;939.1192;;;;
2020/06/04 13:52:12;;;;;;;1;0.8;;;;;;;19.91;54.25;939.0577;;;;
2020/06/04 13:55:21;;;;;;;2.1;0.8;;;;;;;19.79;54.75195;939.0761;;;;
2020/06/04 14:13:51;;;;;;;1.6;1;;;;;;;19.21;62.53418;938.9614;;;;
2020/06/04 14:18:49;;;;;;;1.3;0.9;;;;;;;19.22;61.78418;938.9589;;;;
2020/06/04 14:23:40;;;;;;;1.1;0.9;;;;;;;19.07;61.22363;938.9838;;;;
2020/06/04 14:25:57;;;;;;;1.7;1.1;;;;;;;19.24;61.35254;939.0449;;;;
2020/06/04 14:30:56;;;;;;;2.4;1;;;;;;;19.17;61.14355;939.0646;;;;
2020/06/04 14:38:11;;;;;;;1.9;1.3;;;;;;;19.04;62.28613;939.1278;;;;
2020/06/04 14:40:34;;;;;;;2;1.3;;;;;;;18.94;64.00977;939.0311;;;;
2020/06/04 14:50:51;;;;;;;1.5;1;;;;;;;18.07;65.9668;939.0683;;;;
2020/06/04 14:52:44;;;;;;;5.3;1.2;;;;;;;18.06;66.48047;938.9936;;;;
2020/06/04 14:54:58;;;;;;;2.7;1.1;;;;;;;18.18;66.55762;938.9372;;;;
2020/06/04 14:57:19;;;;;;;1.5;1;;;;;;;18.23;64.53809;938.9484;;;;
2020/06/04 14:59:43;;;;;;;3;1.4;;;;;;;18.15;66.36523;938.9088;;;;
2020/06/04 15:02:08;;;;;;;3.5;1.3;;;;;;;18.23;65.8623;938.9228;;;;
2020/06/04 15:09:30;;;;;;;3.1;1.1;;;;;;;18.17;65.54785;938.8527;;;;
2020/06/04 15:11:49;;;;;;;3.4;1.3;;;;;;;18.16;65.3125;938.8278;;;;
2020/06/04 15:14:13;;;;;;;3.1;1.2;;;;;;;18.21;65.13184;938.7597;;;;
2020/06/04 15:16:48;;;;;;;1.9;1.1;;;;;;;18.31;65.46289;938.8236;;;;
2020/06/04 15:19:04;;;;;;;2.5;1.1;;;;;;;18.13;65.58984;938.7747;;;;
2020/06/04 15:21:29;;;;;;;3.5;1.4;;;;;;;18.29;66.50391;938.7178;;;;
2020/06/04 15:23:56;;;;;;;3;1.3;;;;;;;18.15;65.34668;938.6334;;;;
2020/06/04 15:26:19;;;;;;;1.6;1.3;;;;;;;18.26;64.77637;938.553;;;;
2020/06/04 15:28:44;;;;;;;1.7;1.2;;;;;;;18.32;64.06055;938.5839;;;;
2020/06/04 15:31:24;;;;;;;2.8;1.2;;;;;;;18.22;63.27246;938.5226;;;;
2020/06/04 15:33:57;;;;;;;3.7;1.3;;;;;;;18.16;62.83008;938.4941;;;;
2020/06/04 15:36:07;;;;;;;1.1;1;;;;;;;18.21;63.38867;938.567;;;;
2020/06/04 15:38:29;;;;;;;1.5;1.4;;;;;;;18.07;64.15137;938.567;;;;
2020/06/04 15:43:33;;;;;;;1.8;1.4;;;;;;;18.06;64.3623;938.6135;;;;
2020/06/04 15:47:13;;;;;;;2.7;1.2;;;;;;;17.97;64.21777;938.5922;;;;
2020/06/04 15:48:29;;;;;;;3.1;1.3;;;;;;;18.09;63.44141;938.5693;;;;
2020/06/04 15:50:45;;;;;;;1.9;1.1;;;;;;;18.02;63.82813;938.65;;;;
2020/06/04 15:53:11;;;;;;;1.6;1.1;;;;;;;18.08;63.98926;938.6955;;;;
2020/06/04 15:55:37;;;;;;;1.8;1.2;;;;;;;18.09;64.19043;938.7012;;;;
2020/06/04 15:58:06;;;;;;;2.1;1.2;;;;;;;17.96;65.17773;938.7672;;;;
2020/06/04 16:12:50;;;;;;;3.5;2.1;;;;;;;17.64;70.11426;938.9483;;;;
2020/06/04 16:15:07;;;;;;;2.1;1.5;;;;;;;17.55;69.86523;938.9235;;;;
2020/06/04 16:17:29;;;;;;;2.7;1.6;;;;;;;17.3;70.72656;938.9286;;;;
2020/06/04 16:22:16;;;;;;;1.5;1.3;;;;;;;16.99;70.57129;938.9808;;;;
2020/06/04 16:24:42;;;;;;;2.1;1.4;;;;;;;17.01;71.625;938.9995;;;;
2020/06/04 16:29:54;;;;;;;2.7;1.4;;;;;;;16.93;70.89941;939.0298;;;;
2020/06/04 16:36:59;;;;;;;1.7;1.3;;;;;;;16.63;71.35352;938.9975;;;;
2020/06/04 16:39:20;;;;;;;3.1;1.3;;;;;;;16.69;72.61133;939.0974;;;;
2020/06/04 16:41:45;;;;;;;2.4;1.4;;;;;;;16.63;72.50879;939.0994;;;;
2020/06/04 16:44:12;;;;;;;2.3;1.3;;;;;;;16.67;72.59668;939.1531;;;;
2020/06/04 16:46:43;;;;;;;2.2;1.3;;;;;;;16.56;71.93652;939.2006;;;;
2020/06/04 16:56:22;;;;;;;2.6;1.6;;;;;;;16.08;76.05371;939.3275;;;;
2020/06/04 16:58:41;;;;;;;2.1;1.5;;;;;;;15.96;76.05664;939.3538;;;;
2020/06/04 17:12:33;;;;;;;6.1;2.7;;;;;;;15.49;87.00879;939.3276;;;;
2020/06/04 17:13:17;;;;;;;5;2.5;;;;;;;15.4;89.2041;939.4109;;;;
2020/06/04 17:18:25;;;;;;;2.9;2.2;;;;;;;15.28;89.2832;939.4691;;;;
2020/06/04 17:20:34;;;;;;;2.8;2.2;;;;;;;15.21;89.43164;939.5131;;;;
2020/06/04 17:22:54;;;;;;;3.7;2.5;;;;;;;15.3;91.90527;939.5381;;;;
2020/06/04 17:25:39;;;;;;;4.1;2.5;;;;;;;15.34;93.32031;939.5747;;;;
2020/06/04 17:27:47;;;;;;;2.7;2.2;;;;;;;15.12;91.22754;939.6094;;;;
2020/06/04 17:35:21;;;;;;;2.6;2.3;;;;;;;14.93;90.03906;939.5225;;;;
2020/06/04 17:39:56;;;;;;;3.5;2.4;;;;;;;15.03;90.80176;939.5516;;;;
2020/06/04 17:45:08;;;;;;;2.9;2.4;;;;;;;15;91.71484;939.5483;;;;
2020/06/04 17:52:16;;;;;;;3;2.7;;;;;;;15.1;94.02441;939.6339;;;;
2020/06/04 17:57:05;;;;;;;3.4;2.5;;;;;;;14.99;91.15332;939.6519;;;;
2020/06/04 17:59:43;;;;;;;2.8;2.5;;;;;;;14.83;92.22559;939.6552;;;;
2020/06/04 18:04:18;;;;;;;3.7;2.5;;;;;;;14.94;92.72461;939.6206;;;;
2020/06/04 18:13:59;;;;;;;2.6;2.4;;;;;;;14.98;91.15332;939.6653;;;;
2020/06/04 18:18:52;;;;;;;3.5;2.7;;;;;;;14.91;92.52148;939.7198;;;;
2020/06/04 18:21:04;;;;;;;2.8;2.6;;;;;;;14.82;90.78027;939.7556;;;;
2020/06/04 18:28:36;;;;;;;4.3;3;;;;;;;14.67;92.07715;939.7269;;;;
2020/06/04 18:30:48;;;;;;;3.5;2.9;;;;;;;14.78;91.94629;939.7805;;;;
2020/06/04 18:35:32;;;;;;;3.2;2.9;;;;;;;14.7;92.49902;939.7542;;;;
2020/06/04 18:42:57;;;;;;;3.1;2.7;;;;;;;14.54;92.23438;939.7464;;;;
2020/06/04 18:49:03;;;;;;;3.1;2.8;;;;;;;14.57;92.83301;939.8103;;;;
2020/06/04 18:52:30;;;;;;;2.6;2.4;;;;;;;14.48;90.65332;939.8256;;;;
2020/06/04 18:57:21;;;;;;;2.4;2.2;;;;;;;14.4;90.55371;939.8805;;;;
2020/06/04 18:59:45;;;;;;;2.4;2.2;;;;;;;14.37;90.87305;939.8926;;;;
2020/06/04 19:02:11;;;;;;;2.3;2.1;;;;;;;14.47;91.20703;939.9628;;;;
2020/06/04 19:04:42;;;;;;;2.5;2.3;;;;;;;14.36;91.28906;939.9366;;;;
2020/06/04 19:08:54;;;;;;;3.3;2.5;;;;;;;14.24;94.50293;940.043;;;;
2020/06/04 19:11:52;;;;;;;3.9;3.1;;;;;;;14.1;98.1875;940.0016;;;;
2020/06/04 19:16:29;;;;;;;3.2;2.9;;;;;;;13.99;97.9873;940.0486;;;;
2020/06/04 19:23:33;;;;;;;4.1;2.8;;;;;;;13.96;98.52441;940.074;;;;
2020/06/04 19:25:51;;;;;;;2.9;2.7;;;;;;;13.91;97.07324;940.0474;;;;
2020/06/04 19:31:14;;;;;;;2.9;2.6;;;;;;;13.94;97.50098;940.0942;;;;
2020/06/04 19:34:31;;;;;;;3.1;2.8;;;;;;;13.97;97.72754;940.108;;;;
2020/06/04 19:38:53;;;;;;;3.4;3;;;;;;;13.93;96.53418;940.1417;;;;
2020/06/04 19:40:50;;;;;;;3.7;2.9;;;;;;;13.96;96.66992;940.1403;;;;
2020/06/04 19:45:11;;;;;;;3.4;3.1;;;;;;;13.95;99.00879;940.1989;;;;
2020/06/04 19:52:26;;;;;;;4;3.3;;;;;;;13.86;98.4668;940.1717;;;;
2020/06/04 19:54:55;;;;;;;3.6;3.2;;;;;;;13.88;98.99316;940.1284;;;;
2020/06/04 19:59:41;;;;;;;3.6;3.2;;;;;;;13.82;98.64453;940.1587;;;;
2020/06/04 20:02:13;;;;;;;4;3.6;;;;;;;13.77;98.29785;940.149;;;;
2020/06/04 20:06:58;;;;;;;3.8;3.5;;;;;;;13.69;98.54395;940.1552;;;;
2020/06/04 20:09:32;;;;;;;4;3.6;;;;;;;13.66;98.0166;940.1373;;;;
2020/06/04 20:12:45;;;;;;;4.2;3.6;;;;;;;13.73;99.83008;940.1462;;;;
2020/06/04 20:14:25;;;;;;;4.2;3.5;;;;;;;13.73;99.26172;940.1217;;;;
2020/06/04 20:21:29;;;;;;;4.1;3.7;;;;;;;13.61;98.63086;940.0731;;;;
2020/06/04 20:26:54;;;;;;;4.5;4.1;;;;;;;13.56;100;940.0628;;;;
2020/06/04 20:31:16;;;;;;;5.1;4.6;;;;;;;13.54;100;940.0641;;;;
2020/06/04 20:33:33;;;;;;;5;4.5;;;;;;;13.54;100;940.0524;;;;
2020/06/04 20:36:06;;;;;;;4.6;4.2;;;;;;;13.5;99.7998;939.9768;;;;
2020/06/04 20:43:18;;;;;;;4.3;3.9;;;;;;;13.64;99.96973;939.9813;;;;
2020/06/04 20:45:45;;;;;;;4;3.6;;;;;;;13.58;97.89453;940.0122;;;;
2020/06/04 20:50:38;;;;;;;4.7;3.4;;;;;;;13.5;96.89355;939.9914;;;;
2020/06/04 20:53:05;;;;;;;4.5;3.6;;;;;;;13.63;97.84863;940.0045;;;;
2020/06/04 20:55:30;;;;;;;3.9;3.5;;;;;;;13.64;96.93262;939.9992;;;;
2020/06/04 20:58:06;;;;;;;4.3;3.9;;;;;;;13.65;98.44141;939.9984;;;;
2020/06/04 21:03:11;;;;;;;4.3;3.9;;;;;;;13.61;99.0127;939.9617;;;;
2020/06/04 21:10:00;;;;;;;3.7;3.4;;;;;;;13.53;96.25;940.0349;;;;
2020/06/04 21:12:49;;;;;;;4.2;3.7;;;;;;;13.56;96.76563;940.0784;;;;
2020/06/04 21:17:08;;;;;;;3.6;3.3;;;;;;;13.54;95.28809;940.0837;;;;
2020/06/04 21:19:44;;;;;;;4.1;3.5;;;;;;;13.44;95.3252;940.0625;;;;
2020/06/04 21:22:03;;;;;;;3.7;3.3;;;;;;;13.5;95.53516;940.1477;;;;
2020/06/04 21:26:56;;;;;;;3.4;3.1;;;;;;;13.43;95.54492;940.0847;;;;
2020/06/04 21:29:19;;;;;;;3.5;3.2;;;;;;;13.39;94.20313;940.1116;;;;
2020/06/04 21:36:45;;;;;;;3.4;3.1;;;;;;;13.37;93.46875;940.1415;;;;
2020/06/04 21:39:10;;;;;;;3.2;2.9;;;;;;;13.41;94.14844;940.176;;;;
2020/06/04 21:44:06;;;;;;;4;2.8;;;;;;;13.33;93.76074;940.0976;;;;
2020/06/04 21:46:17;;;;;;;2.7;2.5;;;;;;;13.32;93.22559;940.1234;;;;
2020/06/04 21:48:41;;;;;;;3;2.7;;;;;;;13.37;92.90137;940.144;;;;
2020/06/04 21:53:39;;;;;;;2.8;2.6;;;;;;;13.31;92.70313;940.0996;;;;
2020/06/04 21:56:14;;;;;;;2.8;2.5;;;;;;;13.3;92.26074;940.1407;;;;
2020/06/04 21:58:23;;;;;;;2.9;2.5;;;;;;;13.32;92.28809;940.1765;;;;
2020/06/04 22:10:29;;;;;;;2.9;2.4;;;;;;;13.29;91.51758;940.2548;;;;
2020/06/04 22:12:50;;;;;;;2.3;2.1;;;;;;;13.3;91.57715;940.252;;;;
2020/06/04 22:15:21;;;;;;;3.7;2.7;;;;;;;13.31;91.74121;940.2665;;;;
2020/06/04 22:17:50;;;;;;;2.5;2.1;;;;;;;13.21;90.85449;940.1891;;;;
2020/06/04 22:22:30;;;;;;;3.3;2.2;;;;;;;13.23;90.37012;940.1872;;;;
2020/06/04 22:24:55;;;;;;;2.5;2.3;;;;;;;13.29;92.0752;940.1983;;;;
2020/06/04 22:27:20;;;;;;;2.3;2;;;;;;;13.22;90.13672;940.2372;;;;
2020/06/04 22:29:45;;;;;;;2.1;1.9;;;;;;;13.09;89.95801;940.2164;;;;
2020/06/04 22:32:10;;;;;;;2.2;2;;;;;;;13.17;90.51855;940.2342;;;;
2020/06/04 22:34:36;;;;;;;2.2;2;;;;;;;13.19;90.80078;940.238;;;;
2020/06/04 22:37:02;;;;;;;2.2;2;;;;;;;13.11;90.86426;940.2866;;;;
2020/06/04 22:39:27;;;;;;;2.4;2.2;;;;;;;13.11;91.0166;940.2766;;;;
2020/06/04 22:41:52;;;;;;;2.4;2.2;;;;;;;13.1;91.41797;940.2497;;;;
2020/06/04 22:44:20;;;;;;;2.7;2.2;;;;;;;13.06;91.61914;940.2858;;;;
2020/06/04 22:47:01;;;;;;;2.8;2.6;;;;;;;13.03;92.48145;940.235;;;;
2020/06/04 22:49:07;;;;;;;3;2.3;;;;;;;12.98;92.13672;940.2581;;;;
2020/06/04 22:51:33;;;;;;;2.7;2.5;;;;;;;13.04;93.10645;940.2265;;;;
2020/06/04 22:53:59;;;;;;;2.7;2.3;;;;;;;13;93.22656;940.2553;;;;
2020/06/04 22:56:23;;;;;;;2.5;2.3;;;;;;;12.84;92.46484;940.3028;;;;
2020/06/04 22:59:53;;;;;;;2.9;2.7;;;;;;;12.99;93.08594;940.2842;;;;
2020/06/04 23:01:20;;;;;;;2.6;2.4;;;;;;;13.05;92.05762;940.1985;;;;
2020/06/04 23:03:41;;;;;;;2.5;2.3;;;;;;;13.03;92.01855;940.217;;;;
2020/06/04 23:06:14;;;;;;;2.4;2.2;;;;;;;13.07;91.96875;940.1767;;;;
2020/06/04 23:08:39;;;;;;;2.9;2.2;;;;;;;12.99;90.88867;940.2742;;;;
2020/06/04 23:11:15;;;;;;;2.4;2.2;;;;;;;12.91;91.44824;940.3536;;;;
2020/06/04 23:16:13;;;;;;;2.9;2.3;;;;;;;12.87;92.4375;940.3512;;;;
2020/06/04 23:18:22;;;;;;;3.7;2.5;;;;;;;12.86;91.9248;940.2975;;;;
2020/06/04 23:20:47;;;;;;;2.5;2.3;;;;;;;12.88;91.96289;940.3027;;;;
2020/06/04 23:23:12;;;;;;;2.7;2.4;;;;;;;12.83;92.00977;940.392;;;;
2020/06/04 23:25:37;;;;;;;2.6;2.4;;;;;;;12.81;92.17773;940.3911;;;;
2020/06/04 23:28:02;;;;;;;3.4;2.4;;;;;;;12.81;91.45996;940.3356;;;;
2020/06/04 23:31:27;;;;;;;2.5;2.3;;;;;;;12.72;91.61914;940.3078;;;;
2020/06/04 23:32:53;;;;;;;2.5;2.3;;;;;;;12.77;92.48242;940.2797;;;;
2020/06/04 23:37:57;;;;;;;3;2.1;;;;;;;12.73;91.73633;940.3597;;;;
2020/06/04 23:40:22;;;;;;;3.5;2.4;;;;;;;12.83;92.10254;940.3691;;;;
2020/06/04 23:42:41;;;;;;;2.3;2.1;;;;;;;12.81;91.99414;940.3069;;;;
2020/06/04 23:45:00;;;;;;;2.3;2.1;;;;;;;12.85;91.22656;940.2234;;;;
2020/06/04 23:47:25;;;;;;;2.8;2.3;;;;;;;12.81;90.78906;940.2097;;;;
2020/06/04 23:49:50;;;;;;;2.6;2.3;;;;;;;12.74;90.48926;940.2534;;;;
2020/06/04 23:52:15;;;;;;;2.4;2.2;;;;;;;12.84;90.55371;940.209;;;;